Boueff, Arkansas
Current Conditions -  °F | °C
As of 2:53 AM on Thursday 27 Nov 2014 (Local Time) from KGLH Reporting Station
Clear Clear  
Wind Chill: 36°   Ceiling: Unl
Heat Index: 42°   Visibility: 10mi
Dew Point: 31°   Wind: 10mph
Humidity: 65%   Direction: 320°NW
Pressure: 30.32"   Gusts: NA
Location:  33.1306°N, 91.2896°W
Report Text: KGLH 270853Z AUTO 32009KT 10SM CLR 06/M01 A3032 RMK AO2 SLP277 T00561006 53025
Loading
Personal Weather Stations






























Interactive Weather Map New forecast layout! Learn more

10-Day Weather Forecast

Advertisements
Track Severe Weather on mobile